Time;durP1;ratioP1;P1;durP2;ratioP2;P2;SDS_P1;SDS_P2;PMS_P1;PMS_P2;Temp;Humidity;BMP_temperature;BMP_pressure;BME280_temperature;BME280_humidity;BME280_pressure;Samples;Min_cycle;Max_cycle;Signal;HPM_P1;HPM_P2
2023/11/26 00:02:28;;;;;;;0.00;0.00;;;21.10;45.40;;;;;;5067631;28;20179;-53
2023/11/26 00:04:59;;;;;;;0.00;0.00;;;21.10;45.40;;;;;;5073199;28;20661;-56
2023/11/26 00:07:29;;;;;;;0.00;0.00;;;21.20;45.40;;;;;;5073096;28;20610;-56
2023/11/26 00:10:02;;;;;;;0.00;0.00;;;21.20;45.30;;;;;;5072785;28;20218;-56
2023/11/26 00:12:33;;;;;;;0.10;0.10;;;21.20;45.30;;;;;;5038314;28;20226;-57
2023/11/26 00:15:05;;;;;;;0.05;0.05;;;21.20;45.30;;;;;;5033001;28;20601;-54
2023/11/26 00:17:35;;;;;;;0.00;0.00;;;21.30;45.40;;;;;;5032565;28;20196;-54
2023/11/26 00:20:07;;;;;;;0.03;0.03;;;21.30;45.40;;;;;;5032438;28;20224;-53
2023/11/26 00:22:38;;;;;;;0.10;0.10;;;21.30;45.40;;;;;;5032806;28;20261;-56
2023/11/26 00:25:11;;;;;;;0.00;0.00;;;21.30;45.40;;;;;;5033006;28;20200;-54
2023/11/26 00:27:42;;;;;;;0.10;0.10;;;21.30;45.50;;;;;;5033074;28;20192;-54
2023/11/26 00:30:13;;;;;;;0.00;0.00;;;21.30;45.30;;;;;;5041569;28;20685;-54
2023/11/26 00:32:44;;;;;;;0.00;0.00;;;21.40;45.30;;;;;;5051885;28;20203;-50
2023/11/26 00:35:14;;;;;;;0.00;0.00;;;21.40;45.30;;;;;;5052442;28;20223;-56
2023/11/26 00:37:45;;;;;;;0.00;0.00;;;21.40;45.30;;;;;;5051779;28;20592;-56
2023/11/26 00:40:24;;;;;;;0.00;0.00;;;21.40;45.90;;;;;;5052433;28;20227;-56
2023/11/26 00:42:54;;;;;;;0.00;0.00;;;21.40;45.20;;;;;;5032206;28;20196;-52
2023/11/26 00:45:25;;;;;;;0.05;0.05;;;21.50;45.30;;;;;;5032399;28;20656;-55
2023/11/26 00:47:59;;;;;;;0.00;0.00;;;21.50;45.20;;;;;;5032276;28;20672;-51
2023/11/26 00:50:30;;;;;;;0.00;0.00;;;21.50;45.10;;;;;;5032250;28;20254;-54
2023/11/26 00:53:00;;;;;;;0.08;0.08;;;21.60;45.10;;;;;;5032033;28;20541;-52
2023/11/26 00:55:33;;;;;;;0.00;0.00;;;21.60;45.10;;;;;;5051443;28;20210;-54
2023/11/26 00:58:04;;;;;;;0.10;0.10;;;21.60;45.10;;;;;;5072063;28;20199;-54
2023/11/26 01:00:35;;;;;;;0.05;0.05;;;21.70;45.20;;;;;;5071634;28;20215;-54
2023/11/26 01:03:06;;;;;;;0.10;0.10;;;21.70;45.10;;;;;;5071737;28;20439;-56
2023/11/26 01:05:36;;;;;;;0.00;0.00;;;21.70;45.10;;;;;;5071880;28;20198;-54
2023/11/26 01:08:08;;;;;;;0.00;0.00;;;21.70;45.10;;;;;;5071968;28;20198;-55
2023/11/26 01:10:41;;;;;;;0.00;0.00;;;21.70;45.10;;;;;;5069010;28;20605;-54
2023/11/26 01:13:11;;;;;;;0.00;0.00;;;21.80;45.00;;;;;;5031888;28;20656;-56
2023/11/26 01:15:42;;;;;;;0.00;0.00;;;21.80;45.10;;;;;;5031788;28;20230;-55
2023/11/26 01:18:13;;;;;;;0.00;0.00;;;21.80;45.00;;;;;;5031730;28;20641;-51
2023/11/26 01:20:43;;;;;;;0.10;0.10;;;21.80;45.10;;;;;;5034065;28;20219;-48
2023/11/26 01:23:14;;;;;;;0.10;0.10;;;21.80;45.00;;;;;;5031917;28;20200;-55
2023/11/26 01:25:47;;;;;;;0.10;0.10;;;21.80;44.90;;;;;;5031969;28;20200;-51
2023/11/26 01:28:18;;;;;;;0.00;0.00;;;21.90;45.10;;;;;;5031714;28;20207;-56
2023/11/26 01:30:48;;;;;;;0.10;0.10;;;21.90;45.10;;;;;;5033032;28;20216;-53
2023/11/26 01:33:20;;;;;;;0.00;0.00;;;21.90;45.10;;;;;;5053314;28;20196;-55
2023/11/26 01:35:51;;;;;;;0.00;0.00;;;21.90;45.10;;;;;;5051010;28;20230;-50
2023/11/26 01:38:21;;;;;;;0.08;0.08;;;21.90;45.00;;;;;;5047626;28;20587;-53
2023/11/26 01:40:54;;;;;;;0.10;0.10;;;22.00;45.00;;;;;;5051520;28;20235;-50
2023/11/26 01:43:26;;;;;;;0.10;0.10;;;22.00;45.00;;;;;;5050954;28;20250;-54
2023/11/26 01:46:07;;;;;;;0.00;0.00;;;22.00;45.00;;;;;;5051015;28;20600;-52
2023/11/26 01:48:40;;;;;;;0.10;0.10;;;22.10;44.90;;;;;;5051183;28;20197;-51
2023/11/26 01:51:14;;;;;;;0.03;0.03;;;22.10;45.00;;;;;;5051146;28;20215;-57
2023/11/26 01:53:48;;;;;;;0.10;0.10;;;22.10;44.90;;;;;;5051073;28;20289;-55
2023/11/26 01:56:21;;;;;;;0.00;0.00;;;22.10;44.90;;;;;;5060362;28;20453;-52
2023/11/26 01:58:52;;;;;;;0.00;0.00;;;22.20;44.90;;;;;;5071007;28;20566;-51
2023/11/26 02:01:25;;;;;;;0.00;0.00;;;22.20;44.90;;;;;;5071053;28;20469;-52
2023/11/26 02:03:56;;;;;;;0.10;0.10;;;22.20;44.90;;;;;;5070614;28;20195;-55
2023/11/26 02:06:27;;;;;;;0.00;0.00;;;22.20;44.90;;;;;;5070688;28;20230;-55
2023/11/26 02:09:01;;;;;;;0.00;0.00;;;22.20;44.80;;;;;;5071059;28;20205;-51
2023/11/26 02:11:34;;;;;;;0.10;0.10;;;22.20;44.80;;;;;;5053372;28;20208;-54
2023/11/26 02:14:04;;;;;;;0.00;0.00;;;22.30;44.80;;;;;;5031145;28;20192;-52
2023/11/26 02:16:35;;;;;;;0.10;0.10;;;22.30;44.80;;;;;;5031201;28;20707;-53
2023/11/26 02:19:10;;;;;;;0.00;0.00;;;22.30;44.80;;;;;;5039260;28;20203;-55
2023/11/26 02:21:42;;;;;;;0.08;0.08;;;22.30;44.70;;;;;;5030817;28;20200;-57
2023/11/26 02:24:17;;;;;;;0.00;0.00;;;22.40;44.70;;;;;;5030344;28;20287;-56
2023/11/26 02:26:50;;;;;;;0.00;0.00;;;22.40;44.70;;;;;;5030661;28;20236;-54
2023/11/26 02:29:21;;;;;;;0.00;0.00;;;22.40;44.60;;;;;;5029588;28;20227;-55
2023/11/26 02:31:52;;;;;;;0.00;0.00;;;22.40;44.50;;;;;;5030916;28;20291;-50
2023/11/26 02:34:23;;;;;;;0.00;0.00;;;22.50;44.40;;;;;;5041989;28;20552;-55
2023/11/26 02:36:54;;;;;;;0.05;0.05;;;22.50;44.30;;;;;;5050585;28;20590;-55
2023/11/26 02:39:28;;;;;;;0.00;0.00;;;22.50;44.20;;;;;;5032609;28;20220;-56
2023/11/26 02:42:01;;;;;;;0.00;0.00;;;22.50;44.20;;;;;;5042459;28;20202;-56
2023/11/26 02:44:32;;;;;;;0.03;0.03;;;22.50;44.10;;;;;;5049397;28;20195;-52
2023/11/26 02:47:03;;;;;;;0.00;0.00;;;22.60;44.20;;;;;;5049924;28;20658;-56
2023/11/26 02:49:34;;;;;;;0.00;0.00;;;22.60;44.20;;;;;;5031826;28;20734;-54
2023/11/26 02:52:05;;;;;;;0.00;0.00;;;22.60;44.10;;;;;;5030031;28;20196;-55
2023/11/26 02:54:35;;;;;;;0.00;0.00;;;22.60;44.00;;;;;;5030582;28;20250;-57
2023/11/26 02:57:08;;;;;;;0.00;0.00;;;22.60;44.00;;;;;;5036321;28;20219;-51
2023/11/26 02:59:39;;;;;;;0.00;0.00;;;22.70;44.10;;;;;;5046700;28;20225;-55
2023/11/26 03:02:10;;;;;;;0.08;0.08;;;22.70;44.00;;;;;;5073818;28;20202;-54
2023/11/26 03:04:46;;;;;;;0.00;0.00;;;22.70;44.00;;;;;;5040071;28;20239;-51
2023/11/26 03:07:20;;;;;;;0.00;0.00;;;22.70;43.90;;;;;;5042670;28;21035;-52
2023/11/26 03:13:07;;;;;;;0.00;0.00;;;22.80;43.90;;;;;;5040365;28;20198;-52
2023/11/26 03:15:39;;;;;;;0.10;0.10;;;22.90;43.90;;;;;;5038727;28;20197;-46
2023/11/26 03:18:12;;;;;;;0.00;0.00;;;22.90;43.90;;;;;;5032937;28;20189;-54
2023/11/26 03:20:45;;;;;;;0.00;0.00;;;22.90;43.90;;;;;;5033203;28;20295;-54
2023/11/26 03:23:16;;;;;;;0.00;0.00;;;22.90;43.80;;;;;;5033484;28;20579;-49
2023/11/26 03:25:46;;;;;;;0.00;0.00;;;22.90;43.80;;;;;;5050035;28;20193;-56
2023/11/26 03:28:19;;;;;;;0.00;0.00;;;23.00;43.90;;;;;;5048668;28;20219;-56
2023/11/26 03:30:51;;;;;;;0.00;0.00;;;23.00;43.80;;;;;;5033019;28;20227;-52
2023/11/26 03:33:21;;;;;;;0.00;0.00;;;23.00;43.80;;;;;;5033478;28;20206;-53
2023/11/26 03:35:52;;;;;;;0.00;0.00;;;23.00;43.50;;;;;;5033478;28;20200;-52
2023/11/26 03:38:23;;;;;;;0.00;0.00;;;23.10;43.60;;;;;;5045472;28;20574;-52
2023/11/26 03:40:54;;;;;;;0.00;0.00;;;23.10;43.60;;;;;;5044189;28;20554;-52
2023/11/26 03:43:27;;;;;;;0.03;0.03;;;23.10;43.70;;;;;;5047610;28;20199;-48
2023/11/26 03:45:57;;;;;;;0.00;0.00;;;23.10;43.70;;;;;;5035120;28;20203;-46
2023/11/26 03:48:28;;;;;;;0.00;0.00;;;23.10;43.60;;;;;;5061587;28;20226;-53
2023/11/26 03:50:59;;;;;;;0.03;0.03;;;23.20;43.70;;;;;;5035880;28;20234;-53
2023/11/26 03:53:29;;;;;;;0.00;0.00;;;23.20;43.80;;;;;;5047167;28;20344;-54
2023/11/26 03:56:00;;;;;;;0.00;0.00;;;23.20;43.80;;;;;;5033059;28;20199;-44
2023/11/26 03:58:33;;;;;;;0.00;0.00;;;23.20;43.60;;;;;;5032590;28;20185;-53
2023/11/26 04:01:04;;;;;;;0.00;0.00;;;23.30;43.70;;;;;;5032376;28;20216;-43
2023/11/26 04:03:34;;;;;;;0.10;0.10;;;23.30;43.60;;;;;;5033208;28;20199;-52
2023/11/26 04:06:06;;;;;;;0.00;0.00;;;23.30;43.70;;;;;;5046700;28;20206;-53
2023/11/26 04:08:36;;;;;;;0.03;0.03;;;23.30;43.60;;;;;;5046244;28;20641;-42
2023/11/26 04:11:07;;;;;;;0.00;0.00;;;23.30;43.50;;;;;;5037832;28;20586;-50
2023/11/26 04:13:40;;;;;;;0.00;0.00;;;23.30;43.50;;;;;;5038831;28;20195;-45
2023/11/26 04:16:14;;;;;;;0.10;0.10;;;23.30;43.60;;;;;;5052123;28;20208;-48
2023/11/26 04:18:45;;;;;;;0.00;0.00;;;23.30;43.60;;;;;;5046110;28;20200;-49
2023/11/26 04:21:16;;;;;;;0.00;0.00;;;23.30;43.50;;;;;;5032166;28;20220;-51
2023/11/26 04:23:46;;;;;;;0.00;0.00;;;23.30;43.50;;;;;;5032297;28;20195;-54
2023/11/26 04:26:17;;;;;;;0.00;0.00;;;23.40;43.60;;;;;;5032247;28;20200;-45
2023/11/26 04:28:50;;;;;;;0.00;0.00;;;23.40;43.50;;;;;;5030256;28;20188;-46
2023/11/26 04:31:21;;;;;;;0.00;0.00;;;23.40;43.50;;;;;;5042771;28;20702;-51
2023/11/26 04:33:51;;;;;;;0.00;0.00;;;23.40;43.50;;;;;;5045055;28;20195;-50
2023/11/26 04:36:22;;;;;;;0.10;0.10;;;23.40;43.50;;;;;;5034897;28;20220;-48
2023/11/26 04:38:57;;;;;;;0.00;0.00;;;23.40;43.40;;;;;;5045680;28;20188;-50
2023/11/26 04:41:28;;;;;;;0.00;0.00;;;23.40;43.50;;;;;;5039560;28;20210;-48
2023/11/26 04:44:01;;;;;;;0.00;0.00;;;23.50;43.50;;;;;;5050919;28;20183;-49
2023/11/26 04:46:32;;;;;;;0.00;0.00;;;23.50;43.50;;;;;;5031806;28;20215;-51
2023/11/26 04:49:03;;;;;;;0.00;0.00;;;23.50;44.10;;;;;;5030938;28;20197;-52
2023/11/26 04:51:38;;;;;;;0.00;0.00;;;23.50;43.30;;;;;;5031940;28;20682;-49
2023/11/26 04:54:11;;;;;;;0.00;0.00;;;23.50;43.30;;;;;;5032241;28;20195;-50
2023/11/26 04:56:42;;;;;;;0.00;0.00;;;23.50;43.30;;;;;;5030756;28;20315;-48
2023/11/26 04:59:15;;;;;;;0.00;0.00;;;23.50;43.30;;;;;;5031718;28;20200;-51
2023/11/26 05:01:48;;;;;;;0.00;0.00;;;23.60;43.30;;;;;;5031405;28;20196;-50
2023/11/26 05:04:19;;;;;;;0.10;0.10;;;23.60;43.20;;;;;;5031276;28;20192;-50
2023/11/26 05:06:50;;;;;;;0.00;0.00;;;23.60;43.20;;;;;;5031736;28;20287;-50
2023/11/26 05:09:21;;;;;;;0.00;0.00;;;23.60;43.20;;;;;;5039607;28;20211;-50
2023/11/26 05:11:52;;;;;;;0.00;0.00;;;23.60;43.10;;;;;;5050412;28;20651;-51
2023/11/26 05:14:25;;;;;;;0.00;0.00;;;23.60;43.00;;;;;;5051590;28;20192;-51
2023/11/26 05:16:56;;;;;;;0.00;0.00;;;23.60;43.00;;;;;;5051533;28;20228;-50
2023/11/26 05:19:26;;;;;;;0.00;0.00;;;23.60;43.00;;;;;;5050181;28;20218;-49
2023/11/26 05:21:57;;;;;;;0.00;0.00;;;23.60;42.80;;;;;;5047181;28;20294;-52
2023/11/26 05:24:28;;;;;;;0.00;0.00;;;23.60;42.90;;;;;;5042446;28;20230;-46
2023/11/26 05:26:58;;;;;;;0.00;0.00;;;23.60;42.90;;;;;;5031103;28;20207;-49
2023/11/26 05:29:31;;;;;;;0.00;0.00;;;23.60;42.90;;;;;;5030842;28;20220;-50
2023/11/26 05:32:02;;;;;;;0.00;0.00;;;23.60;42.90;;;;;;5037034;28;20187;-49
2023/11/26 05:34:33;;;;;;;0.00;0.00;;;23.60;42.90;;;;;;5051171;28;20195;-49
2023/11/26 05:37:03;;;;;;;0.00;0.00;;;23.70;42.90;;;;;;5049798;28;20219;-47
2023/11/26 05:39:34;;;;;;;0.00;0.00;;;23.70;42.90;;;;;;5042414;28;20619;-49
2023/11/26 05:42:05;;;;;;;0.00;0.00;;;23.70;42.80;;;;;;5040599;28;20204;-51
2023/11/26 05:44:38;;;;;;;0.00;0.00;;;23.70;42.80;;;;;;5047346;28;20200;-50
2023/11/26 05:47:09;;;;;;;0.00;0.00;;;23.70;42.80;;;;;;5039954;28;20546;-50
2023/11/26 05:49:40;;;;;;;0.00;0.00;;;23.70;42.70;;;;;;5040925;28;20724;-51
2023/11/26 05:52:10;;;;;;;0.00;0.00;;;23.70;42.50;;;;;;5029669;28;20196;-49
2023/11/26 05:54:41;;;;;;;0.00;0.00;;;23.70;42.50;;;;;;5030270;28;20640;-46
2023/11/26 05:57:12;;;;;;;0.00;0.00;;;23.60;42.40;;;;;;5030435;28;20220;-53
2023/11/26 05:59:44;;;;;;;0.00;0.00;;;23.60;42.40;;;;;;5030258;28;20220;-53
2023/11/26 06:02:15;;;;;;;0.00;0.00;;;23.60;42.30;;;;;;5047024;28;20207;-49
2023/11/26 06:04:46;;;;;;;0.00;0.00;;;23.60;42.20;;;;;;5041238;28;20204;-50
2023/11/26 06:07:17;;;;;;;0.00;0.00;;;23.60;42.30;;;;;;5030148;28;20560;-50
2023/11/26 06:09:48;;;;;;;0.00;0.00;;;23.60;42.20;;;;;;5030095;28;20215;-50
2023/11/26 06:12:18;;;;;;;0.00;0.00;;;23.60;42.20;;;;;;5039520;28;20207;-48
2023/11/26 06:14:51;;;;;;;0.00;0.00;;;23.60;42.20;;;;;;5035461;28;20578;-48
2023/11/26 06:17:22;;;;;;;0.00;0.00;;;23.60;42.20;;;;;;5030672;28;20231;-53
2023/11/26 06:19:52;;;;;;;0.00;0.00;;;23.60;42.20;;;;;;5039898;28;20269;-49
2023/11/26 06:22:23;;;;;;;0.00;0.00;;;23.60;42.20;;;;;;5050480;28;20199;-47
2023/11/26 06:24:54;;;;;;;0.00;0.00;;;23.60;42.30;;;;;;5050634;28;20664;-51
2023/11/26 06:27:25;;;;;;;0.00;0.00;;;23.60;42.30;;;;;;5050896;28;20685;-52
2023/11/26 06:29:58;;;;;;;0.00;0.00;;;23.60;42.30;;;;;;5050833;28;20227;-51
2023/11/26 06:32:28;;;;;;;0.00;0.00;;;23.60;42.30;;;;;;5054447;28;20200;-50
2023/11/26 06:34:59;;;;;;;0.00;0.00;;;23.60;42.40;;;;;;5056258;28;20195;-49
2023/11/26 06:37:30;;;;;;;0.00;0.00;;;23.60;42.30;;;;;;5054501;28;20224;-53
2023/11/26 06:40:00;;;;;;;0.00;0.00;;;23.60;42.20;;;;;;5054386;28;20599;-50
2023/11/26 06:42:31;;;;;;;0.10;0.10;;;23.60;42.20;;;;;;5053361;28;20202;-46
2023/11/26 06:45:04;;;;;;;0.00;0.00;;;23.60;42.20;;;;;;5053576;28;20242;-52
2023/11/26 06:47:35;;;;;;;0.00;0.00;;;23.60;42.00;;;;;;5053293;28;20207;-53
2023/11/26 06:50:06;;;;;;;0.03;0.03;;;23.60;42.10;;;;;;5052219;28;20632;-53
2023/11/26 06:52:37;;;;;;;0.00;0.00;;;23.60;42.00;;;;;;5053169;28;20195;-49
2023/11/26 06:55:08;;;;;;;0.00;0.00;;;23.60;42.00;;;;;;5053138;28;20207;-46
2023/11/26 06:57:39;;;;;;;0.00;0.00;;;23.60;42.00;;;;;;5053037;28;20281;-51
2023/11/26 07:00:13;;;;;;;0.00;0.00;;;23.60;42.00;;;;;;5052923;28;20318;-49
2023/11/26 07:02:44;;;;;;;0.00;0.00;;;23.60;42.00;;;;;;5052367;28;20248;-52
2023/11/26 07:05:15;;;;;;;0.00;0.00;;;23.50;41.90;;;;;;5051872;28;20191;-53
2023/11/26 07:07:46;;;;;;;0.00;0.00;;;23.60;42.00;;;;;;5053324;28;20199;-53
2023/11/26 07:10:17;;;;;;;0.00;0.00;;;23.50;41.90;;;;;;5052903;28;20223;-50
2023/11/26 07:12:50;;;;;;;0.00;0.00;;;23.50;41.90;;;;;;5033138;28;20234;-49
2023/11/26 07:15:22;;;;;;;0.00;0.00;;;23.50;42.00;;;;;;5032018;28;20283;-51
2023/11/26 07:17:55;;;;;;;0.00;0.00;;;23.50;41.90;;;;;;5031892;28;20231;-45
2023/11/26 07:20:27;;;;;;;0.00;0.00;;;23.50;42.00;;;;;;5064329;28;20217;-46
2023/11/26 07:22:57;;;;;;;0.00;0.00;;;23.50;42.00;;;;;;5072550;28;20655;-51
2023/11/26 07:25:28;;;;;;;0.00;0.00;;;23.50;42.00;;;;;;5072862;28;20206;-52
2023/11/26 07:27:59;;;;;;;0.05;0.05;;;23.50;42.00;;;;;;5072521;28;20690;-50
2023/11/26 07:30:32;;;;;;;0.00;0.00;;;23.40;41.90;;;;;;5044425;28;20211;-53
2023/11/26 07:33:02;;;;;;;0.00;0.00;;;23.40;42.00;;;;;;5031784;28;20196;-49
2023/11/26 07:35:33;;;;;;;0.10;0.10;;;23.40;42.00;;;;;;5032648;28;20322;-52
2023/11/26 07:38:04;;;;;;;0.10;0.10;;;23.40;42.00;;;;;;5032358;28;20318;-50
2023/11/26 07:40:35;;;;;;;0.00;0.00;;;23.40;42.00;;;;;;4919565;28;3300503;-51
2023/11/26 07:43:07;;;;;;;0.00;0.00;;;23.30;42.00;;;;;;5053141;28;20203;-53
2023/11/26 07:45:40;;;;;;;0.00;0.00;;;23.30;42.00;;;;;;5053347;28;20287;-45
2023/11/26 07:48:11;;;;;;;0.00;0.00;;;23.30;42.10;;;;;;5055274;28;20188;-50
2023/11/26 07:50:42;;;;;;;0.00;0.00;;;23.30;42.10;;;;;;5059592;28;20203;-51
2023/11/26 07:53:13;;;;;;;0.00;0.00;;;23.30;42.10;;;;;;5073102;28;20206;-50
2023/11/26 07:55:45;;;;;;;0.00;0.00;;;23.20;41.80;;;;;;5073465;28;20198;-52
2023/11/26 07:58:20;;;;;;;0.00;0.00;;;23.20;41.70;;;;;;5073012;28;20295;-49
2023/11/26 08:00:53;;;;;;;0.10;0.10;;;23.10;41.70;;;;;;5072507;28;20226;-49
2023/11/26 08:03:26;;;;;;;0.00;0.00;;;23.10;41.80;;;;;;5034406;28;20283;-48
2023/11/26 08:05:56;;;;;;;0.10;0.10;;;23.10;41.90;;;;;;5032213;28;20246;-48
2023/11/26 08:08:34;;;;;;;0.00;0.00;;;23.10;41.90;;;;;;5032363;28;20192;-51
2023/11/26 08:11:07;;;;;;;0.00;0.00;;;23.00;42.00;;;;;;5037732;28;20257;-50
2023/11/26 08:13:41;;;;;;;0.00;0.00;;;23.00;42.00;;;;;;5051885;28;20211;-44
2023/11/26 08:16:15;;;;;;;0.00;0.00;;;23.00;42.00;;;;;;5050385;28;20200;-48
2023/11/26 08:18:46;;;;;;;0.00;0.00;;;23.00;42.10;;;;;;5029859;28;20227;-47
2023/11/26 08:21:17;;;;;;;0.00;0.00;;;22.90;42.00;;;;;;5034373;28;20212;-53
2023/11/26 08:23:51;;;;;;;0.10;0.10;;;22.90;42.10;;;;;;5032235;28;20204;-50
2023/11/26 08:26:22;;;;;;;0.00;0.00;;;22.90;42.10;;;;;;5032201;28;20235;-46
2023/11/26 08:28:53;;;;;;;0.00;0.00;;;22.90;42.10;;;;;;5043359;28;20337;-54
2023/11/26 08:31:27;;;;;;;0.00;0.00;;;22.90;42.20;;;;;;5048557;28;20216;-48
2023/11/26 08:33:58;;;;;;;0.10;0.10;;;22.80;42.20;;;;;;5031387;28;20241;-54
2023/11/26 08:36:31;;;;;;;0.00;0.00;;;22.80;42.10;;;;;;5031997;28;20220;-55
2023/11/26 08:39:01;;;;;;;0.00;0.00;;;22.80;42.20;;;;;;5032391;28;20227;-46
2023/11/26 08:41:32;;;;;;;0.10;0.10;;;22.70;42.10;;;;;;5044555;28;20220;-50
2023/11/26 08:44:03;;;;;;;0.00;0.00;;;22.70;42.20;;;;;;5040711;28;20204;-54
2023/11/26 08:46:36;;;;;;;0.00;0.00;;;22.70;42.30;;;;;;5050882;28;20249;-54
2023/11/26 08:49:08;;;;;;;0.00;0.00;;;22.70;42.30;;;;;;5050991;28;20527;-54
2023/11/26 08:51:40;;;;;;;0.00;0.00;;;22.70;42.30;;;;;;5050397;28;20187;-51
2023/11/26 08:54:11;;;;;;;0.05;0.05;;;22.60;42.30;;;;;;5050888;28;20206;-48
2023/11/26 08:56:42;;;;;;;0.00;0.00;;;22.60;42.30;;;;;;5045143;28;20203;-50
2023/11/26 08:59:13;;;;;;;0.00;0.00;;;22.60;42.30;;;;;;5030666;28;20223;-49
2023/11/26 09:01:46;;;;;;;0.00;0.00;;;22.60;42.30;;;;;;5032244;28;20199;-50
2023/11/26 09:04:17;;;;;;;0.00;0.00;;;22.60;42.30;;;;;;5030760;28;20200;-49
2023/11/26 09:06:48;;;;;;;0.10;0.10;;;22.50;42.30;;;;;;5031569;28;20582;-52
2023/11/26 09:09:19;;;;;;;0.10;0.10;;;22.60;42.40;;;;;;5031573;28;20192;-51
2023/11/26 09:11:49;;;;;;;0.00;0.00;;;22.50;42.30;;;;;;5037040;28;20214;-50
2023/11/26 09:14:20;;;;;;;0.00;0.00;;;22.50;43.00;;;;;;5031010;28;20196;-51
2023/11/26 09:16:53;;;;;;;0.00;0.00;;;22.50;42.40;;;;;;5030853;28;20189;-50
2023/11/26 09:19:24;;;;;;;0.00;0.00;;;22.50;42.40;;;;;;5031450;28;20224;-53
2023/11/26 09:21:54;;;;;;;0.10;0.10;;;22.40;42.40;;;;;;5030680;28;20280;-53
2023/11/26 09:24:25;;;;;;;0.10;0.10;;;22.40;42.40;;;;;;5054123;28;20651;-54
2023/11/26 09:26:56;;;;;;;0.00;0.00;;;22.40;42.40;;;;;;5031096;28;20196;-50
2023/11/26 09:29:27;;;;;;;0.05;0.05;;;22.30;42.40;;;;;;5030978;28;20206;-52
2023/11/26 09:31:59;;;;;;;0.00;0.00;;;22.30;42.40;;;;;;5031103;28;20196;-52
2023/11/26 09:34:30;;;;;;;0.00;0.00;;;22.30;42.40;;;;;;5029723;28;20196;-54
2023/11/26 09:37:04;;;;;;;0.05;0.05;;;22.30;42.40;;;;;;5033922;28;20196;-52
2023/11/26 09:39:35;;;;;;;0.00;0.00;;;22.30;42.50;;;;;;5030673;28;20226;-52
2023/11/26 09:42:07;;;;;;;0.00;0.00;;;22.20;42.50;;;;;;5043752;28;20205;-54
2023/11/26 09:44:38;;;;;;;0.00;0.00;;;22.20;42.40;;;;;;5051067;28;20199;-54
2023/11/26 09:47:13;;;;;;;0.03;0.03;;;22.20;42.50;;;;;;5050859;28;20238;-49
2023/11/26 09:49:44;;;;;;;0.00;0.00;;;22.20;42.40;;;;;;5056738;28;20216;-53
2023/11/26 09:52:15;;;;;;;0.10;0.10;;;22.10;42.40;;;;;;5043284;28;20552;-47
2023/11/26 09:54:46;;;;;;;0.00;0.00;;;22.10;42.40;;;;;;5070753;28;20194;-54
2023/11/26 09:57:17;;;;;;;0.00;0.00;;;22.10;42.40;;;;;;5046905;28;20196;-51
2023/11/26 09:59:48;;;;;;;0.00;0.00;;;22.10;42.40;;;;;;5030958;28;20227;-54
2023/11/26 10:02:20;;;;;;;0.00;0.00;;;22.00;42.40;;;;;;5030866;28;20196;-52
2023/11/26 10:04:52;;;;;;;0.10;0.10;;;22.00;42.40;;;;;;5047759;28;20195;-53
2023/11/26 10:07:36;;;;;;;0.00;0.00;;;22.00;42.40;;;;;;5049090;28;20193;-52
2023/11/26 10:10:09;;;;;;;0.00;0.00;;;22.00;42.50;;;;;;5034519;28;20219;-51
2023/11/26 10:12:57;;;;;;;0.00;0.00;;;22.00;42.40;;;;;;5052574;28;20195;-52
2023/11/26 10:15:31;;;;;;;0.00;0.00;;;21.90;42.50;;;;;;5054353;28;20663;-50
2023/11/26 10:18:07;;;;;;;0.00;0.00;;;21.90;42.40;;;;;;5053985;28;20191;-53
2023/11/26 10:20:40;;;;;;;0.00;0.00;;;21.80;42.50;;;;;;5054007;28;20555;-54
2023/11/26 10:23:13;;;;;;;0.00;0.00;;;21.80;42.50;;;;;;5042454;28;20270;-52
2023/11/26 10:25:46;;;;;;;0.00;0.00;;;21.80;42.50;;;;;;5034450;28;20463;-54
2023/11/26 10:28:18;;;;;;;0.00;0.00;;;21.80;42.50;;;;;;5033789;28;20239;-54
2023/11/26 10:30:49;;;;;;;0.00;0.00;;;21.80;42.50;;;;;;5039464;28;20215;-55
2023/11/26 10:33:22;;;;;;;0.00;0.00;;;21.70;42.50;;;;;;5054234;28;20196;-53
2023/11/26 10:35:54;;;;;;;0.00;0.00;;;21.70;42.50;;;;;;5053934;28;20202;-52
2023/11/26 10:38:27;;;;;;;0.10;0.10;;;21.70;42.50;;;;;;5055928;28;20214;-47
2023/11/26 10:40:59;;;;;;;0.00;0.00;;;21.60;42.50;;;;;;5038342;28;20232;-51
2023/11/26 10:43:31;;;;;;;0.10;0.10;;;21.60;42.50;;;;;;5067364;28;20195;-53
2023/11/26 10:46:02;;;;;;;0.00;0.00;;;21.60;42.50;;;;;;5053659;28;20667;-53
2023/11/26 10:48:37;;;;;;;0.00;0.00;;;21.60;42.50;;;;;;5053561;28;20644;-49
2023/11/26 10:51:11;;;;;;;0.00;0.00;;;21.50;42.50;;;;;;5053206;28;20241;-51
2023/11/26 10:53:50;;;;;;;0.00;0.00;;;21.50;42.50;;;;;;5053654;28;20245;-52
2023/11/26 10:56:25;;;;;;;0.10;0.10;;;21.50;42.60;;;;;;5053294;28;20199;-53
2023/11/26 10:58:58;;;;;;;0.03;0.03;;;21.50;42.60;;;;;;5053820;28;20241;-48
2023/11/26 11:01:29;;;;;;;0.00;0.00;;;21.50;42.60;;;;;;5053949;28;20219;-54
2023/11/26 11:04:02;;;;;;;0.10;0.10;;;21.40;42.60;;;;;;5052881;28;20192;-48
2023/11/26 11:06:34;;;;;;;0.00;0.00;;;21.40;42.60;;;;;;5053504;28;20199;-51
2023/11/26 11:09:05;;;;;;;0.00;0.00;;;21.30;42.60;;;;;;5053222;28;20203;-46
2023/11/26 11:11:51;;;;;;;0.00;0.00;;;21.40;42.60;;;;;;5033230;28;20259;-54
2023/11/26 11:14:22;;;;;;;0.10;0.10;;;21.30;42.60;;;;;;5033541;28;20635;-48
2023/11/26 11:16:52;;;;;;;0.00;0.00;;;21.30;42.60;;;;;;5033192;28;20203;-46
2023/11/26 11:19:55;;;;;;;0.00;0.00;;;21.30;42.70;;;;;;5033885;28;20745;-52
2023/11/26 11:22:39;;;;;;;0.00;0.00;;;21.20;42.60;;;;;;5034168;28;20713;-48
2023/11/26 11:25:11;;;;;;;0.00;0.00;;;21.20;42.60;;;;;;5046069;28;20210;-53
2023/11/26 11:27:58;;;;;;;0.00;0.00;;;21.20;42.70;;;;;;5033732;28;20204;-47
2023/11/26 11:30:58;;;;;;;0.00;0.00;;;21.20;42.70;;;;;;5033794;28;20299;-53
2023/11/26 11:33:29;;;;;;;0.00;0.00;;;21.10;42.70;;;;;;5021614;28;20206;-51
2023/11/26 11:36:03;;;;;;;0.10;0.10;;;21.10;42.60;;;;;;5042224;28;20203;-55
2023/11/26 11:39:07;;;;;;;0.10;0.10;;;21.10;42.70;;;;;;5052874;28;20219;-48
2023/11/26 11:42:12;;;;;;;0.00;0.00;;;21.10;42.80;;;;;;5041632;28;20211;-55
2023/11/26 11:44:43;;;;;;;0.00;0.00;;;21.00;42.70;;;;;;5036170;28;20199;-51
2023/11/26 11:47:15;;;;;;;0.10;0.10;;;21.00;42.70;;;;;;5037263;28;20676;-51
2023/11/26 11:50:09;;;;;;;0.00;0.00;;;21.00;42.80;;;;;;5043879;28;20694;-49
2023/11/26 11:52:41;;;;;;;0.00;0.00;;;20.90;42.80;;;;;;5031044;28;20192;-51
2023/11/26 11:55:36;;;;;;;0.10;0.10;;;20.90;42.80;;;;;;5039536;28;20242;-52
2023/11/26 11:58:25;;;;;;;0.10;0.10;;;20.90;42.80;;;;;;5042199;28;20188;-49
2023/11/26 12:01:01;;;;;;;0.00;0.00;;;20.90;42.80;;;;;;5040190;28;20278;-54
2023/11/26 12:03:32;;;;;;;0.00;0.00;;;20.90;42.80;;;;;;5038514;28;20207;-50
2023/11/26 12:06:13;;;;;;;0.00;0.00;;;20.80;42.70;;;;;;5042116;28;20191;-53
2023/11/26 12:08:44;;;;;;;0.00;0.00;;;20.80;42.80;;;;;;5043293;28;20275;-47
2023/11/26 12:11:17;;;;;;;0.00;0.00;;;20.80;42.80;;;;;;5039469;28;20609;-51
2023/11/26 12:13:48;;;;;;;0.10;0.10;;;20.80;42.80;;;;;;5040675;28;20540;-53
2023/11/26 12:16:18;;;;;;;0.10;0.10;;;20.80;42.80;;;;;;5039912;28;20188;-51
2023/11/26 12:18:55;;;;;;;0.00;0.00;;;20.70;42.80;;;;;;5039382;28;20262;-51
2023/11/26 12:21:26;;;;;;;0.00;0.00;;;20.70;42.80;;;;;;5041382;28;20207;-49
2023/11/26 12:23:57;;;;;;;0.05;0.05;;;20.70;42.80;;;;;;5040767;28;20670;-51
2023/11/26 12:26:39;;;;;;;0.10;0.10;;;20.60;42.80;;;;;;5041463;28;20188;-47
2023/11/26 12:29:14;;;;;;;0.05;0.05;;;20.60;42.80;;;;;;5049012;28;20188;-46
2023/11/26 12:31:45;;;;;;;0.00;0.00;;;20.60;42.80;;;;;;5052398;28;20655;-50
2023/11/26 12:34:16;;;;;;;0.00;0.00;;;20.60;42.80;;;;;;5051813;28;20199;-43
2023/11/26 12:36:48;;;;;;;0.03;0.03;;;20.60;42.80;;;;;;5045560;28;20659;-50
2023/11/26 12:39:19;;;;;;;0.10;0.10;;;20.50;42.80;;;;;;5041948;28;20242;-51
2023/11/26 12:41:52;;;;;;;0.10;0.10;;;20.50;42.80;;;;;;5038169;28;20607;-44
2023/11/26 12:44:23;;;;;;;0.10;0.10;;;20.50;42.80;;;;;;5070097;22;20223;-48
2023/11/26 12:47:05;;;;;;;0.10;0.10;;;20.50;42.80;;;;;;5062686;28;20214;-47
2023/11/26 12:49:36;;;;;;;0.00;0.00;;;20.50;42.80;;;;;;5057942;28;20212;-48
2023/11/26 12:52:09;;;;;;;0.00;0.00;;;20.50;42.80;;;;;;5040780;28;20196;-45
2023/11/26 12:54:42;;;;;;;0.00;0.00;;;20.50;42.90;;;;;;5041835;28;20193;-47
2023/11/26 12:57:14;;;;;;;0.03;0.03;;;20.40;43.50;;;;;;5040322;28;20499;-48
2023/11/26 12:59:49;;;;;;;0.10;0.10;;;20.40;42.80;;;;;;5040741;28;20247;-46
2023/11/26 13:02:19;;;;;;;0.00;0.00;;;20.40;42.80;;;;;;5041804;28;20195;-48
2023/11/26 13:04:51;;;;;;;0.00;0.00;;;20.40;42.90;;;;;;5040441;28;20185;-49
2023/11/26 13:07:22;;;;;;;0.03;0.03;;;20.30;42.80;;;;;;5041899;28;20241;-47
2023/11/26 13:09:54;;;;;;;0.10;0.10;;;20.30;42.80;;;;;;5040500;28;20715;-49
2023/11/26 13:12:26;;;;;;;0.00;0.00;;;20.30;42.80;;;;;;5041111;28;20195;-48
2023/11/26 13:14:57;;;;;;;0.00;0.00;;;20.30;42.80;;;;;;5041357;28;20184;-46
2023/11/26 13:17:28;;;;;;;0.00;0.00;;;20.20;42.80;;;;;;5040641;28;20192;-45
2023/11/26 13:19:58;;;;;;;0.00;0.00;;;20.20;42.80;;;;;;5041068;28;20246;-45